Flight Track Log - Related Links

Times and Time Zones

All times are in EDT time to prevent confusion due to time zone crossing. See the CMP251 flight status page for this flight to view local times or setup timezone preferences in your user account.

Time Position Orientation Groundspeed Altitude Reporting Facility
EDT Latitude Longitude Course Direction KTS MPH feet Rate Location/Type
Tue 01:26:32 PM 9.0770 -79.0270 106° East 345 397 11,700  Level FlightAware ADS-B
Tue 01:27:07 PM 9.0600 -78.9710 107° East 353 406 13,100 1,050 Climbing FlightAware ADS-B
Tue 01:27:52 PM 9.0430 -78.9050 105° East 353 406 13,100 2,733 Level FlightAware ADS-B
Tue 01:28:37 PM 9.0140 -78.8240 110° East 369 425 17,200 3,867 Climbing FlightAware ADS-B
Tue 01:29:22 PM 8.9910 -78.7510 108° East 377 434 18,900 1,500 Climbing FlightAware ADS-B
Tue 01:30:17 PM 8.9640 -78.6620 107° East 381 438 19,700 505 Climbing FlightAware ADS-B
Tue 01:30:57 PM 8.9480 -78.6030 105° East 381 438 19,700  Level FlightAware ADS-B
Tue 01:31:37 PM 8.9310 -78.5450 107° East 381 438 19,700  Level FlightAware ADS-B
Tue 01:32:17 PM 8.9150 -78.4870 106° East 381 438 19,700  Level FlightAware ADS-B
Tue 01:33:07 PM 8.8940 -78.4140 106° East 381 438 19,700  Level FlightAware ADS-B
Tue 01:35:00 PM 8.9270 -78.1689 82° East  Level Estimated
Tue 01:36:00 PM 8.9444 -78.0387 82° East  Level Estimated
Tue 01:37:00 PM 8.9618 -77.9086 82° East  Level Estimated
Tue 01:38:00 PM 8.9792 -77.7784 82° East  Level Estimated
Tue 01:39:00 PM 8.9965 -77.6482 82° East  Level Estimated
Tue 01:40:00 PM 9.0137 -77.5180 82° East  Level Estimated
Tue 01:41:00 PM 9.0310 -77.3878 82° East  Level Estimated
Tue 01:42:00 PM 9.0481 -77.2575 82° East  Level Estimated
Tue 01:43:00 PM 9.0653 -77.1273 82° East  Level Estimated
Tue 01:44:00 PM 9.0823 -76.9970 82° East  Level Estimated
Tue 01:45:00 PM 9.0994 -76.8668 82° East  Level Estimated
Tue 01:46:00 PM 9.1164 -76.7365 82° East  Level Estimated
Tue 01:47:00 PM 9.1333 -76.6062 82° East  Level Estimated
Tue 01:48:00 PM 9.1502 -76.4759 83° East  Level Estimated
Tue 01:49:00 PM 9.1670 -76.3456 83° East  Level Estimated
Tue 01:50:00 PM 9.1838 -76.2152 83° East  Level Estimated
Tue 01:51:00 PM 9.2006 -76.0849 83° East  Level Estimated
Tue 01:52:00 PM 9.2173 -75.9545 83° East  Level Estimated
Tue 01:53:00 PM 9.2339 -75.8242 83° East  Level Estimated
Tue 01:54:00 PM 9.2506 -75.6938 83° East  Level Estimated
Tue 01:55:00 PM 9.2671 -75.5634 83° East  Level Estimated
Tue 01:56:00 PM 9.2836 -75.4330 83° East  Level Estimated
Tue 01:57:00 PM 9.3001 -75.3026 83° East  Level Estimated
Tue 01:58:00 PM 9.3165 -75.1721 83° East  Level Estimated
Tue 01:59:00 PM 9.3329 -75.0417 83° East  Level Estimated
Tue 02:00:00 PM 9.3492 -74.9113 83° East  Level Estimated
Tue 02:01:00 PM 9.3655 -74.7808 83° East  Level Estimated
Tue 02:02:00 PM 9.3818 -74.6503 83° East  Level Estimated
Tue 02:03:00 PM 9.3979 -74.5198 83° East  Level Estimated
Tue 02:04:00 PM 9.4141 -74.3893 83° East  Level Estimated
Tue 02:05:00 PM 9.4302 -74.2588 83° East  Level Estimated
Tue 02:06:00 PM 9.4462 -74.1283 83° East  Level Estimated
Tue 02:07:00 PM 9.4622 -73.9977 83° East  Level Estimated
Tue 02:08:00 PM 9.4781 -73.8672 83° East  Level Estimated
Tue 02:09:00 PM 9.4940 -73.7366 83° East  Level Estimated
Tue 02:10:00 PM 9.5099 -73.6060 83° East  Level Estimated
Tue 02:11:00 PM 9.5257 -73.4755 83° East  Level Estimated
Tue 02:12:00 PM 9.5414 -73.3449 83° East  Level Estimated
Tue 02:13:00 PM 9.5571 -73.2142 83° East  Level Estimated
Tue 02:14:00 PM 9.5728 -73.0836 83° East  Level Estimated
Tue 02:15:00 PM 9.5884 -72.9530 83° East  Level Estimated
Tue 02:16:00 PM 9.6039 -72.8223 83° East  Level Estimated
Tue 02:17:00 PM 9.6194 -72.6917 83° East  Level Estimated
Tue 02:18:00 PM 9.6349 -72.5610 83° East  Level Estimated
Tue 02:19:00 PM 9.6503 -72.4303 83° East  Level Estimated
Tue 02:20:00 PM 9.6657 -72.2996 83° East  Level Estimated
Tue 02:21:00 PM 9.6810 -72.1689 83° East  Level Estimated
Tue 02:22:00 PM 9.6962 -72.0382 83° East  Level Estimated
Tue 02:23:00 PM 9.7115 -71.9075 83° East  Level Estimated
Tue 02:24:00 PM 9.7266 -71.7767 83° East  Level Estimated
Tue 02:25:00 PM 9.7417 -71.6460 83° East  Level Estimated
Tue 02:26:00 PM 9.7568 -71.5152 83° East  Level Estimated
Tue 02:27:00 PM 9.7718 -71.3844 83° East  Level Estimated
Tue 02:28:00 PM 9.7868 -71.2536 83° East  Level Estimated
Tue 02:29:00 PM 9.8017 -71.1228 83° East  Level Estimated
Tue 02:30:00 PM 9.8165 -70.9920 83° East  Level Estimated
Tue 02:31:00 PM 9.8313 -70.8612 83° East  Level Estimated
Tue 02:32:00 PM 9.8461 -70.7303 83° East  Level Estimated
Tue 02:33:00 PM 9.8608 -70.5995 83° East  Level Estimated
Tue 02:34:00 PM 9.8755 -70.4686 84° East  Level Estimated
Tue 02:35:00 PM 9.8901 -70.3378 84° East  Level Estimated
Tue 02:36:00 PM 9.9046 -70.2069 84° East  Level Estimated
Tue 02:37:00 PM 9.9192 -70.0760 84° East  Level Estimated
Tue 02:38:00 PM 9.9336 -69.9451 84° East  Level Estimated
Tue 02:39:00 PM 9.9480 -69.8142 84° East  Level Estimated
Tue 02:40:00 PM 9.9624 -69.6832 84° East  Level Estimated
Tue 02:41:00 PM 9.9767 -69.5523 84° East  Level Estimated
Tue 02:42:00 PM 9.9909 -69.4213 84° East  Level Estimated
Tue 02:43:00 PM 10.0051 -69.2904 84° East  Level Estimated
Tue 02:44:00 PM 10.0193 -69.1594 84° East  Level Estimated
Tue 02:45:00 PM 10.0334 -69.0284 84° East  Level Estimated
Tue 02:46:00 PM 10.0474 -68.8974 84° East  Level Estimated
Tue 02:47:00 PM 10.0614 -68.7664 84° East  Level Estimated
Tue 02:48:00 PM 10.0754 -68.6354 84° East  Level Estimated
Tue 02:49:00 PM 10.0893 -68.5043 84° East  Level Estimated
Tue 02:50:00 PM 10.1031 -68.3733 84° East  Level Estimated
Tue 02:51:00 PM 10.1169 -68.2422 84° East  Level Estimated
Tue 02:52:00 PM 10.1307 -68.1112 84° East  Level Estimated
Tue 02:53:00 PM 10.1444 -67.9801 84° East  Level Estimated
Tue 02:54:00 PM 10.1497 -67.9284 84° East  Level Estimated
Tue 02:55:00 PM 10.1497 -67.9284 North  Level Estimated
Tue 02:56:00 PM 10.1497 -67.9284 North  Level Estimated
Tue 02:57:00 PM 10.1497 -67.9284 North  Level Estimated
Tue 02:58:00 PM 10.1497 -67.9284 North  Level Estimated
Tue 02:59:00 PM 10.1497 -67.9284 North  Level Estimated
Tue 03:00:00 PM 10.1497 -67.9284 North  Level Estimated
Tue 03:01:00 PM 10.1497 -67.9284 North  Level Estimated
Tue 03:02:00 PM 10.1497 -67.9284 North  Level Estimated
Tue 03:03:00 PM 10.1497 -67.9284 North  Level Estimated
Tue 03:04:00 PM 10.1497 -67.9284 North  Level Estimated
Tue 03:05:00 PM 10.1497 -67.9284 North  Level Estimated
Tue 03:06:00 PM 10.1497 -67.9284 North  Level Estimated
Tue 03:07:00 PM 10.1497 -67.9284 North  Level Estimated
Tue 03:08:00 PM 10.1497 -67.9284 North  Level Estimated
Tue 03:09:00 PM 10.1497 -67.9284 North  Level Estimated
Tue 03:10:00 PM 10.1497 -67.9284 North  Level Estimated

Login

Don't have an account? Register now (free) for customized features, flight alerts, and more!